Hawk — LAGF7 — position and weather

sailwx.info

Track history (hours):
 
Tides and Currents Weather Stations Pressure Air Temp Water Temp Dewpoint Dewpoint Depression Visibility Wind Speed Wind Dir Waves Ship Positions

Hawk

Last reported at 2016-Feb-06 12:30 UTC. Time now 2016-Feb-06 15:40 UTC.
Position N 22°44' E 113°40'.

Length 223 m; draft 10 m.

Type: Cargo ship. MMSI: 259848000.

Date/timePositionNaut miles runAvg speedWind from/ knotsBaromVisibWave heightAir tempDewpointWater temp
2016-Feb-06 12:30N 22°44' E 113°40'0 0.1
2016-Feb-06 10:24N 22°44' E 113°40'0 0.2
2016-Feb-06 09:30N 22°44' E 113°40'0 0.1
2016-Feb-06 08:30N 22°43' E 113°40'0 0.1
2016-Feb-06 07:18N 22°44' E 113°40'0 0.0
2016-Feb-06 06:24N 22°44' E 113°40'0 0.1
2016-Feb-06 04:30N 22°44' E 113°40'0 0.0
2016-Feb-06 03:30N 22°44' E 113°40'0 0.0
2016-Feb-06 01:12N 22°44' E 113°40'0 0.2
2016-Feb-06 00:30N 22°44' E 113°40'0 0.2
2016-Feb-05 23:24N 22°43' E 113°40'0 0.0
2016-Feb-05 22:30N 22°43' E 113°40'0 0.0
2016-Feb-05 21:30N 22°43' E 113°40'0 0.0
2016-Feb-05 20:12N 22°43' E 113°40'0 0.1
2016-Feb-05 19:24N 22°43' E 113°41'0 0.1
2016-Feb-05 18:30N 22°43' E 113°40'0 0.0
2016-Feb-05 17:12N 22°43' E 113°40'0 0.0
2016-Feb-05 16:30N 22°43' E 113°40'0 0.1
2016-Feb-05 15:30N 22°43' E 113°40'0 0.1
2016-Feb-05 13:18N 22°44' E 113°40'0 0.0
2016-Feb-05 12:24N 22°44' E 113°40'0 0.0
2016-Feb-05 10:18N 22°44' E 113°40'0 0.2
2016-Feb-05 09:30N 22°44' E 113°40'0 0.0
2016-Feb-05 07:30N 22°44' E 113°40'0 0.0
2016-Feb-05 06:24N 22°44' E 113°40'0 0.1
2016-Feb-05 04:12N 22°43' E 113°40'0 0.0
2016-Feb-04 23:12N 22°43' E 113°40'0 0.0
2016-Feb-04 22:30N 22°43' E 113°40'0 0.0
2016-Feb-04 21:30N 22°43' E 113°40'0 0.0
2016-Feb-04 20:24N 22°43' E 113°40'0 0.0
2016-Feb-04 19:30N 22°43' E 113°40'0 0.0
2016-Feb-04 18:24N 22°43' E 113°40'0 0.0
2016-Feb-04 17:06N 22°44' E 113°40'0 0.1
2016-Feb-04 16:06N 22°44' E 113°40'0 0.1
2016-Feb-04 15:30N 22°44' E 113°40'0 0.0
2016-Feb-04 14:24N 22°44' E 113°40'0 0.2
2016-Feb-04 13:12N 22°44' E 113°40'0 0.1
2016-Feb-04 12:06N 22°44' E 113°40'0 0.0
2016-Feb-04 11:18N 22°44' E 113°40'0 0.1
2016-Feb-04 09:30N 22°44' E 113°40'0 0.1
2016-Feb-04 06:30N 22°44' E 113°40'0 0.0
2016-Feb-04 05:24N 22°44' E 113°40'0 0.0
2016-Feb-04 04:24N 22°44' E 113°40'0 0.0
2016-Feb-03 22:24N 22°44' E 113°40'0 0.0
2016-Feb-03 21:12N 22°44' E 113°40'0 0.1
2016-Feb-03 20:06N 22°44' E 113°40'0 0.2
2016-Feb-03 19:30N 22°44' E 113°40'0 0.3
2016-Feb-03 18:30N 22°43' E 113°41'0 0.1
2016-Feb-03 16:30N 22°44' E 113°40'0 0.1
2016-Feb-03 15:24N 22°44' E 113°40'0 0.0
2016-Feb-03 14:30N 22°44' E 113°40'0 0.1
2016-Feb-03 13:12N 22°44' E 113°40'0 0.1
2016-Feb-03 10:18N 22°44' E 113°40'0 0.1
2016-Feb-03 07:30N 22°44' E 113°40'0 0.0
2016-Feb-03 05:30N 22°44' E 113°41'0 0.5
2016-Feb-03 04:33N 22°43' E 113°41'26 8.5
2016-Feb-03 01:26N 22°18' E 113°48'8 9.4
2016-Feb-03 00:33N 22°10' E 113°51'6 5.6
2016-Feb-02 23:32N 22°04' E 113°53'0 0.1
2016-Feb-02 22:16N 22°04' E 113°53'0 0.0
2016-Feb-02 17:22N 22°04' E 113°53'0 0.0
2016-Feb-01 19:16N 22°04' E 113°53'0 0.0
2016-Feb-01 18:04N 22°04' E 113°53'0 0.0
2016-Feb-01 17:28N 22°04' E 113°53'0 0.0
2016-Feb-01 15:28N 22°04' E 113°53'0 0.1
2016-Feb-01 14:28N 22°04' E 113°53'0 0.0
2016-Feb-01 06:16N 22°04' E 113°53'0 0.0
2016-Jan-31 19:22N 22°04' E 113°53'0 0.0
2016-Jan-31 18:04N 22°04' E 113°53'0 0.1
2016-Jan-31 17:28N 22°04' E 113°53'0 0.0
2016-Jan-31 13:22N 22°04' E 113°53'  
Track history (hours):
 
Tides and Currents Weather Stations Pressure Air Temp Water Temp Dewpoint Dewpoint Depression Visibility Wind Speed Wind Dir Waves Ship Positions

Hawk

Last reported at 2016-Feb-06 12:30 UTC. Time now 2016-Feb-06 15:40 UTC.
Position N 22°44' E 113°40'.

Length 223 m; draft 10 m.

Type: Cargo ship. MMSI: 259848000.

Date/timePositionNaut miles runAvg speedWind from/ knotsBaromVisibWave heightAir tempDewpointWater temp
2016-Feb-06 12:30N 22°44' E 113°40'0 0.1
2016-Feb-06 10:24N 22°44' E 113°40'0 0.2
2016-Feb-06 09:30N 22°44' E 113°40'0 0.1
2016-Feb-06 08:30N 22°43' E 113°40'0 0.1
2016-Feb-06 07:18N 22°44' E 113°40'0 0.0
2016-Feb-06 06:24N 22°44' E 113°40'0 0.1
2016-Feb-06 04:30N 22°44' E 113°40'0 0.0
2016-Feb-06 03:30N 22°44' E 113°40'0 0.0
2016-Feb-06 01:12N 22°44' E 113°40'0 0.2
2016-Feb-06 00:30N 22°44' E 113°40'0 0.2
2016-Feb-05 23:24N 22°43' E 113°40'0 0.0
2016-Feb-05 22:30N 22°43' E 113°40'0 0.0
2016-Feb-05 21:30N 22°43' E 113°40'0 0.0
2016-Feb-05 20:12N 22°43' E 113°40'0 0.1
2016-Feb-05 19:24N 22°43' E 113°41'0 0.1
2016-Feb-05 18:30N 22°43' E 113°40'0 0.0
2016-Feb-05 17:12N 22°43' E 113°40'0 0.0
2016-Feb-05 16:30N 22°43' E 113°40'0 0.1
2016-Feb-05 15:30N 22°43' E 113°40'0 0.1
2016-Feb-05 13:18N 22°44' E 113°40'0 0.0
2016-Feb-05 12:24N 22°44' E 113°40'0 0.0
2016-Feb-05 10:18N 22°44' E 113°40'0 0.2
2016-Feb-05 09:30N 22°44' E 113°40'0 0.0
2016-Feb-05 07:30N 22°44' E 113°40'0 0.0
2016-Feb-05 06:24N 22°44' E 113°40'0 0.1
2016-Feb-05 04:12N 22°43' E 113°40'0 0.0
2016-Feb-04 23:12N 22°43' E 113°40'0 0.0
2016-Feb-04 22:30N 22°43' E 113°40'0 0.0
2016-Feb-04 21:30N 22°43' E 113°40'0 0.0
2016-Feb-04 20:24N 22°43' E 113°40'0 0.0
2016-Feb-04 19:30N 22°43' E 113°40'0 0.0
2016-Feb-04 18:24N 22°43' E 113°40'0 0.0
2016-Feb-04 17:06N 22°44' E 113°40'0 0.1
2016-Feb-04 16:06N 22°44' E 113°40'0 0.1
2016-Feb-04 15:30N 22°44' E 113°40'0 0.0
2016-Feb-04 14:24N 22°44' E 113°40'0 0.2
2016-Feb-04 13:12N 22°44' E 113°40'0 0.1
2016-Feb-04 12:06N 22°44' E 113°40'0 0.0
2016-Feb-04 11:18N 22°44' E 113°40'0 0.1
2016-Feb-04 09:30N 22°44' E 113°40'0 0.1
2016-Feb-04 06:30N 22°44' E 113°40'0 0.0
2016-Feb-04 05:24N 22°44' E 113°40'0 0.0
2016-Feb-04 04:24N 22°44' E 113°40'0 0.0
2016-Feb-03 22:24N 22°44' E 113°40'0 0.0
2016-Feb-03 21:12N 22°44' E 113°40'0 0.1
2016-Feb-03 20:06N 22°44' E 113°40'0 0.2
2016-Feb-03 19:30N 22°44' E 113°40'0 0.3
2016-Feb-03 18:30N 22°43' E 113°41'0 0.1
2016-Feb-03 16:30N 22°44' E 113°40'0 0.1
2016-Feb-03 15:24N 22°44' E 113°40'0 0.0
2016-Feb-03 14:30N 22°44' E 113°40'0 0.1
2016-Feb-03 13:12N 22°44' E 113°40'0 0.1
2016-Feb-03 10:18N 22°44' E 113°40'0 0.1
2016-Feb-03 07:30N 22°44' E 113°40'0 0.0
2016-Feb-03 05:30N 22°44' E 113°41'0 0.5
2016-Feb-03 04:33N 22°43' E 113°41'26 8.5
2016-Feb-03 01:26N 22°18' E 113°48'8 9.4
2016-Feb-03 00:33N 22°10' E 113°51'6 5.6
2016-Feb-02 23:32N 22°04' E 113°53'0 0.1
2016-Feb-02 22:16N 22°04' E 113°53'0 0.0
2016-Feb-02 17:22N 22°04' E 113°53'0 0.0
2016-Feb-01 19:16N 22°04' E 113°53'0 0.0
2016-Feb-01 18:04N 22°04' E 113°53'0 0.0
2016-Feb-01 17:28N 22°04' E 113°53'0 0.0
2016-Feb-01 15:28N 22°04' E 113°53'0 0.1
2016-Feb-01 14:28N 22°04' E 113°53'0 0.0
2016-Feb-01 06:16N 22°04' E 113°53'0 0.0
2016-Jan-31 19:22N 22°04' E 113°53'0 0.0
2016-Jan-31 18:04N 22°04' E 113°53'0 0.1
2016-Jan-31 17:28N 22°04' E 113°53'0 0.0
2016-Jan-31 13:22N 22°04' E 113°53'  

Dump ship's entire track history